createdAt,value
2023-02-20T01:02:10.233Z,101308.00
2023-02-20T01:07:13.541Z,101321.00
2023-02-20T01:12:15.860Z,101320.00
2023-02-20T01:17:19.648Z,101305.00
2023-02-20T01:22:23.272Z,101302.00
2023-02-20T01:27:25.661Z,101314.00
2023-02-20T01:32:29.696Z,101326.00
2023-02-20T01:37:32.082Z,101321.00
2023-02-20T01:42:35.363Z,101324.00
2023-02-20T01:47:40.149Z,101286.00
2023-02-20T01:52:48.316Z,101283.00
2023-02-20T01:57:56.191Z,101292.00
2023-02-20T02:03:06.654Z,101291.00
2023-02-20T02:08:13.867Z,101280.00
2023-02-20T02:13:16.419Z,101281.00
2023-02-20T02:18:49.028Z,101271.00
2023-02-20T02:24:55.486Z,101266.00
2023-02-20T02:31:01.770Z,101271.00
2023-02-20T02:36:43.794Z,101257.00
2023-02-20T02:41:56.923Z,101268.00
2023-02-20T02:47:06.040Z,101272.00
2023-02-20T02:52:12.359Z,101270.00
2023-02-20T02:57:23.108Z,101270.00
2023-02-20T03:02:29.430Z,101261.00
2023-02-20T03:07:37.739Z,101259.00
2023-02-20T03:12:48.764Z,101267.00
2023-02-20T03:18:03.119Z,101258.00
2023-02-20T03:23:11.505Z,101257.00
2023-02-20T03:28:21.244Z,101222.00
2023-02-20T03:33:34.890Z,101221.00
2023-02-20T03:38:47.231Z,101220.00
2023-02-20T03:43:52.973Z,101202.00
2023-02-20T03:49:02.992Z,101189.00
2023-02-20T03:54:08.586Z,101189.00
2023-02-20T03:59:18.243Z,101194.00
2023-02-20T04:04:28.613Z,101177.00
2023-02-20T04:09:37.785Z,101190.00
2023-02-20T04:14:41.756Z,101196.00
2023-02-20T04:19:45.054Z,101188.00
2023-02-20T04:24:57.889Z,101190.00
2023-02-20T04:30:04.349Z,101182.00
2023-02-20T04:35:09.379Z,101157.00
2023-02-20T04:40:17.513Z,101142.00
2023-02-20T04:45:20.107Z,101139.00
2023-02-20T04:50:26.494Z,101133.00
2023-02-20T04:55:31.233Z,101131.00
2023-02-20T05:00:37.312Z,101128.00
2023-02-20T05:05:39.484Z,101111.00
2023-02-20T05:10:43.114Z,101102.00
2023-02-20T05:15:45.386Z,101101.00
2023-02-20T05:20:47.671Z,101085.00
2023-02-20T05:25:51.236Z,101077.00
2023-02-20T05:30:53.716Z,101054.00
2023-02-20T05:35:56.111Z,101041.00
2023-02-20T05:40:59.980Z,101037.00
2023-02-20T05:46:02.344Z,101008.00
2023-02-20T05:51:04.805Z,101007.00
2023-02-20T05:56:08.447Z,101017.00
2023-02-20T06:01:17.025Z,101002.00
2023-02-20T06:06:20.523Z,100995.00
2023-02-20T06:11:24.060Z,100982.00
2023-02-20T06:16:29.161Z,100947.00
2023-02-20T06:21:31.488Z,100956.00
2023-02-20T06:26:40.095Z,100963.00
2023-02-20T06:31:42.769Z,100934.00
2023-02-20T06:36:45.693Z,100935.00
2023-02-20T06:41:49.548Z,100909.00
2023-02-20T06:46:52.373Z,100902.00
2023-02-20T06:51:55.417Z,100908.00
2023-02-20T06:56:59.373Z,100906.00
2023-02-20T07:02:04.198Z,100883.00
2023-02-20T07:07:06.924Z,100871.00
2023-02-20T07:12:11.159Z,100844.00
2023-02-20T07:17:16.912Z,100843.00
2023-02-20T07:22:19.567Z,100828.00
2023-02-20T07:27:23.802Z,100820.00
2023-02-20T07:32:26.415Z,100810.00
2023-02-20T07:37:28.948Z,100801.00
2023-02-20T07:42:35.374Z,100784.00
2023-02-20T07:47:59.698Z,100770.00
2023-02-20T07:53:02.657Z,100766.00
2023-02-20T07:58:07.080Z,100749.00
2023-02-20T08:08:11.345Z,100709.00
2023-02-20T08:13:15.756Z,100672.00
2023-02-20T08:18:23.569Z,100667.00
2023-02-20T08:23:27.223Z,100658.00
2023-02-20T08:28:35.567Z,100635.00
2023-02-20T08:33:51.079Z,100602.00
2023-02-20T08:38:58.381Z,100590.00
2023-02-20T08:44:04.889Z,100569.00
2023-02-20T08:49:08.220Z,100576.00
2023-02-20T08:54:13.250Z,100567.00
2023-02-20T08:59:17.285Z,100555.00
2023-02-20T09:04:21.330Z,100539.00
2023-02-20T09:09:24.625Z,100526.00
2023-02-20T09:14:32.456Z,100516.00
2023-02-20T09:19:35.579Z,100476.00
2023-02-20T09:24:38.436Z,100399.00
2023-02-20T09:29:52.639Z,100424.00
2023-02-20T09:35:20.909Z,100376.00
2023-02-20T09:40:25.362Z,100362.00
2023-02-20T09:45:35.097Z,100347.00
2023-02-20T09:50:48.984Z,100316.00
2023-02-20T09:55:53.086Z,100283.00
2023-02-20T10:01:03.661Z,100275.00
2023-02-20T10:06:17.240Z,100277.00
2023-02-20T10:11:47.673Z,100283.00
2023-02-20T10:17:06.740Z,100278.00
2023-02-20T10:22:22.275Z,100260.00
2023-02-20T10:27:42.703Z,100250.00
2023-02-20T10:32:56.725Z,100223.00
2023-02-20T10:38:08.333Z,100228.00
2023-02-20T10:43:20.539Z,100215.00
2023-02-20T10:48:32.176Z,100199.00
2023-02-20T10:53:53.990Z,100192.00
2023-02-20T10:59:04.988Z,100159.00
2023-02-20T11:04:15.624Z,100171.00
2023-02-20T11:09:18.457Z,100144.00
2023-02-20T11:14:41.273Z,100111.00
2023-02-20T11:25:19.291Z,100100.00
2023-02-20T11:30:34.596Z,100103.00
2023-02-20T11:35:49.724Z,100092.00
2023-02-20T11:41:20.298Z,100068.00
2023-02-20T11:46:24.484Z,100079.00
2023-02-20T11:51:37.877Z,100075.00
2023-02-20T11:57:00.548Z,100070.00
2023-02-20T12:02:28.421Z,100079.00
2023-02-20T12:12:55.373Z,100066.00
2023-02-20T12:18:40.482Z,100047.00
2023-02-20T12:29:07.321Z,100033.00
2023-02-20T12:34:53.449Z,100040.00
2023-02-20T12:40:33.444Z,100022.00
2023-02-20T12:45:46.247Z,100004.00
2023-02-20T12:51:11.828Z,100001.00
2023-02-20T12:56:58.252Z,99982.00
2023-02-20T13:02:35.831Z,99976.00
2023-02-20T13:08:08.315Z,99979.00
2023-02-20T13:18:27.650Z,99949.00
2023-02-20T13:23:43.429Z,99921.00
2023-02-20T13:28:46.307Z,99943.00
2023-02-20T13:34:29.646Z,99922.00
2023-02-20T13:46:18.548Z,99873.00
2023-02-20T13:51:38.682Z,99878.00
2023-02-20T13:56:52.906Z,99873.00
2023-02-20T14:02:14.155Z,99844.00
2023-02-20T14:07:31.338Z,99846.00
2023-02-20T14:12:38.873Z,99836.00
2023-02-20T14:17:43.444Z,99835.00
2023-02-20T14:22:47.228Z,99863.00
2023-02-20T14:27:50.579Z,99855.00
2023-02-20T14:32:56.711Z,99862.00
2023-02-20T14:38:15.681Z,99861.00
2023-02-20T14:43:21.357Z,99861.00
2023-02-20T14:48:28.830Z,99853.00
2023-02-20T14:53:33.151Z,99842.00
2023-02-20T14:58:36.731Z,99851.00
2023-02-20T15:03:39.406Z,99846.00
2023-02-20T15:08:43.909Z,99845.00
2023-02-20T15:13:47.633Z,99828.00
2023-02-20T15:18:50.584Z,99847.00
2023-02-20T15:23:54.374Z,99834.00
2023-02-20T15:29:22.869Z,99810.00
2023-02-20T15:34:28.090Z,99824.00
2023-02-20T15:39:39.583Z,99806.00
2023-02-20T15:44:42.132Z,99811.00
2023-02-20T15:49:44.630Z,99802.00
2023-02-20T15:54:54.502Z,99805.00
2023-02-20T15:59:56.782Z,99808.00
2023-02-20T16:04:59.302Z,99789.00
2023-02-20T16:10:03.816Z,99795.00
2023-02-20T16:15:07.615Z,99818.00
2023-02-20T16:20:19.121Z,99796.00
2023-02-20T16:25:24.109Z,99779.00
2023-02-20T16:30:33.767Z,99768.00
2023-02-20T16:35:36.937Z,99765.00
2023-02-20T16:40:42.036Z,99766.00
2023-02-20T16:45:44.394Z,99751.00
2023-02-20T16:50:51.201Z,99762.00
2023-02-20T16:55:55.135Z,99768.00
2023-02-20T17:00:58.333Z,99783.00
2023-02-20T17:06:00.816Z,99781.00
2023-02-20T17:11:04.747Z,99788.00
2023-02-20T17:16:07.643Z,99765.00
2023-02-20T17:21:10.848Z,99779.00
2023-02-20T17:26:14.938Z,99781.00
2023-02-20T17:31:17.548Z,99796.00
2023-02-20T17:36:19.824Z,99785.00
2023-02-20T17:41:23.651Z,99796.00
2023-02-20T17:46:26.126Z,99803.00
2023-02-20T17:51:28.436Z,99813.00
2023-02-20T17:56:32.146Z,99797.00
2023-02-20T18:01:34.589Z,99802.00
2023-02-20T18:06:38.882Z,99810.00
2023-02-20T18:11:43.245Z,99837.00
2023-02-20T18:16:46.312Z,99846.00
2023-02-20T18:21:48.761Z,99848.00
2023-02-20T18:26:53.536Z,99845.00
2023-02-20T18:31:56.028Z,99865.00
2023-02-20T18:36:59.051Z,99881.00
2023-02-20T18:42:03.624Z,99874.00
2023-02-20T18:47:06.219Z,99857.00
2023-02-20T18:52:09.562Z,99857.00
2023-02-20T18:57:13.591Z,99856.00
2023-02-20T19:02:16.724Z,99857.00
2023-02-20T19:07:20.047Z,99850.00
2023-02-20T19:12:23.889Z,99849.00
2023-02-20T19:17:26.178Z,99851.00
2023-02-20T19:22:29.467Z,99865.00
2023-02-20T19:27:33.170Z,99872.00
2023-02-20T19:32:35.694Z,99862.00
2023-02-20T19:37:38.039Z,99871.00
2023-02-20T19:42:42.410Z,99882.00
2023-02-20T19:47:45.768Z,99880.00
2023-02-20T19:52:48.463Z,99884.00
2023-02-20T19:57:53.040Z,99897.00
2023-02-20T20:02:56.051Z,99886.00
2023-02-20T20:07:58.356Z,99897.00
2023-02-20T20:13:02.084Z,99906.00
2023-02-20T20:18:08.227Z,99895.00
2023-02-20T20:23:11.577Z,99893.00
2023-02-20T20:28:15.743Z,99892.00
2023-02-20T20:33:18.822Z,99902.00
2023-02-20T20:38:21.156Z,99893.00
2023-02-20T20:43:24.896Z,99902.00
2023-02-20T20:48:27.425Z,99899.00
2023-02-20T20:53:29.865Z,99885.00
2023-02-20T20:58:33.655Z,99892.00
2023-02-20T21:03:35.989Z,99902.00
2023-02-20T21:08:38.206Z,99889.00
2023-02-20T21:13:46.851Z,99883.00
2023-02-20T21:18:49.951Z,99881.00
2023-02-20T21:23:52.673Z,99888.00
2023-02-20T21:28:56.501Z,99876.00
2023-02-20T21:33:59.051Z,99865.00
2023-02-20T21:39:01.649Z,99881.00
2023-02-20T21:44:06.539Z,99881.00
2023-02-20T21:49:08.775Z,99888.00
2023-02-20T21:54:11.270Z,99901.00
2023-02-20T21:59:15.065Z,99911.00
2023-02-20T22:04:17.375Z,99913.00
2023-02-20T22:09:19.558Z,99905.00
2023-02-20T22:14:23.277Z,99909.00
2023-02-20T22:19:25.703Z,99905.00
2023-02-20T22:24:37.875Z,99909.00
2023-02-20T22:29:42.238Z,99898.00
2023-02-20T22:34:44.538Z,99892.00
2023-02-20T22:39:48.106Z,99901.00
2023-02-20T22:44:51.741Z,99889.00
2023-02-20T22:49:54.289Z,99908.00
2023-02-20T22:55:04.894Z,99907.00
2023-02-20T23:00:10.375Z,99888.00
2023-02-20T23:05:12.927Z,99898.00
2023-02-20T23:10:16.316Z,99896.00
2023-02-20T23:15:20.320Z,99901.00
2023-02-20T23:20:24.351Z,99918.00
2023-02-20T23:25:26.619Z,99900.00
2023-02-20T23:30:30.340Z,99916.00
2023-02-20T23:35:32.752Z,99918.00
2023-02-20T23:40:37.027Z,99922.00
2023-02-20T23:45:41.125Z,99921.00
2023-02-20T23:50:43.649Z,99925.00
2023-02-20T23:55:45.865Z,99908.00
